sensor_id;sensor_type;location;lat;lon;timestamp;P1;durP1;ratioP1;P2;durP2;ratioP2
10823;SDS011;39116;59.332;18.034;2023-11-22T00:01:57;4.23;;;2.40;;
10823;SDS011;39116;59.332;18.034;2023-11-22T00:04:20;3.83;;;2.60;;
10823;SDS011;39116;59.332;18.034;2023-11-22T00:06:42;5.07;;;2.63;;
10823;SDS011;39116;59.332;18.034;2023-11-22T00:09:03;2.93;;;2.27;;
10823;SDS011;39116;59.332;18.034;2023-11-22T00:11:25;4.53;;;2.63;;
10823;SDS011;39116;59.332;18.034;2023-11-22T00:13:47;3.13;;;2.40;;
10823;SDS011;39116;59.332;18.034;2023-11-22T00:16:09;2.63;;;2.27;;
10823;SDS011;39116;59.332;18.034;2023-11-22T00:18:31;2.77;;;2.07;;
10823;SDS011;39116;59.332;18.034;2023-11-22T00:20:55;2.90;;;2.30;;
10823;SDS011;39116;59.332;18.034;2023-11-22T00:23:17;2.80;;;2.13;;
10823;SDS011;39116;59.332;18.034;2023-11-22T00:25:39;3.03;;;1.80;;
10823;SDS011;39116;59.332;18.034;2023-11-22T00:28:01;2.77;;;2.07;;
10823;SDS011;39116;59.332;18.034;2023-11-22T00:30:26;4.20;;;2.93;;
10823;SDS011;39116;59.332;18.034;2023-11-22T00:32:48;2.90;;;2.23;;
10823;SDS011;39116;59.332;18.034;2023-11-22T00:35:09;5.30;;;2.80;;
10823;SDS011;39116;59.332;18.034;2023-11-22T00:37:32;4.00;;;2.87;;
10823;SDS011;39116;59.332;18.034;2023-11-22T00:39:54;3.57;;;2.97;;
10823;SDS011;39116;59.332;18.034;2023-11-22T00:42:16;5.13;;;3.27;;
10823;SDS011;39116;59.332;18.034;2023-11-22T00:44:40;4.30;;;3.40;;
10823;SDS011;39116;59.332;18.034;2023-11-22T00:47:01;4.43;;;3.50;;
10823;SDS011;39116;59.332;18.034;2023-11-22T00:49:23;4.13;;;3.50;;
10823;SDS011;39116;59.332;18.034;2023-11-22T00:51:45;5.07;;;3.50;;
10823;SDS011;39116;59.332;18.034;2023-11-22T00:54:09;4.73;;;3.53;;
10823;SDS011;39116;59.332;18.034;2023-11-22T00:56:31;3.73;;;3.33;;
10823;SDS011;39116;59.332;18.034;2023-11-22T00:58:53;4.30;;;3.43;;
10823;SDS011;39116;59.332;18.034;2023-11-22T01:01:15;5.17;;;3.47;;
10823;SDS011;39116;59.332;18.034;2023-11-22T01:03:38;3.77;;;3.33;;
10823;SDS011;39116;59.332;18.034;2023-11-22T01:06:00;3.27;;;2.83;;
10823;SDS011;39116;59.332;18.034;2023-11-22T01:08:21;3.33;;;2.97;;
10823;SDS011;39116;59.332;18.034;2023-11-22T01:10:45;5.10;;;3.00;;
10823;SDS011;39116;59.332;18.034;2023-11-22T01:13:07;3.60;;;3.30;;
10823;SDS011;39116;59.332;18.034;2023-11-22T01:15:29;3.53;;;3.00;;
10823;SDS011;39116;59.332;18.034;2023-11-22T01:17:50;2.97;;;2.67;;
10823;SDS011;39116;59.332;18.034;2023-11-22T01:20:12;3.10;;;2.80;;
10823;SDS011;39116;59.332;18.034;2023-11-22T01:22:34;3.67;;;3.10;;
10823;SDS011;39116;59.332;18.034;2023-11-22T01:24:57;3.63;;;3.10;;
10823;SDS011;39116;59.332;18.034;2023-11-22T01:27:20;3.20;;;2.90;;
10823;SDS011;39116;59.332;18.034;2023-11-22T01:29:42;3.50;;;3.20;;
10823;SDS011;39116;59.332;18.034;2023-11-22T01:32:03;4.30;;;3.20;;
10823;SDS011;39116;59.332;18.034;2023-11-22T01:34:25;3.77;;;3.30;;
10823;SDS011;39116;59.332;18.034;2023-11-22T01:36:49;3.97;;;2.97;;
10823;SDS011;39116;59.332;18.034;2023-11-22T01:39:11;3.90;;;3.37;;
10823;SDS011;39116;59.332;18.034;2023-11-22T01:41:34;3.63;;;3.33;;
10823;SDS011;39116;59.332;18.034;2023-11-22T01:43:57;4.27;;;3.60;;
10823;SDS011;39116;59.332;18.034;2023-11-22T01:46:21;4.73;;;3.63;;
10823;SDS011;39116;59.332;18.034;2023-11-22T01:48:44;4.43;;;3.53;;
10823;SDS011;39116;59.332;18.034;2023-11-22T01:51:05;3.97;;;3.30;;
10823;SDS011;39116;59.332;18.034;2023-11-22T01:53:28;4.10;;;3.30;;
10823;SDS011;39116;59.332;18.034;2023-11-22T01:55:51;4.00;;;3.57;;
10823;SDS011;39116;59.332;18.034;2023-11-22T01:58:13;4.23;;;3.50;;
10823;SDS011;39116;59.332;18.034;2023-11-22T02:00:40;4.70;;;3.37;;
10823;SDS011;39116;59.332;18.034;2023-11-22T02:03:03;4.33;;;3.77;;
10823;SDS011;39116;59.332;18.034;2023-11-22T02:05:25;5.27;;;3.50;;
10823;SDS011;39116;59.332;18.034;2023-11-22T02:07:47;4.53;;;3.80;;
10823;SDS011;39116;59.332;18.034;2023-11-22T02:10:09;4.17;;;3.37;;
10823;SDS011;39116;59.332;18.034;2023-11-22T02:12:30;4.70;;;3.37;;
10823;SDS011;39116;59.332;18.034;2023-11-22T02:14:53;3.50;;;2.90;;
10823;SDS011;39116;59.332;18.034;2023-11-22T02:17:16;2.87;;;2.37;;
10823;SDS011;39116;59.332;18.034;2023-11-22T02:19:38;3.10;;;2.80;;
10823;SDS011;39116;59.332;18.034;2023-11-22T02:22:00;5.10;;;3.00;;
10823;SDS011;39116;59.332;18.034;2023-11-22T02:24:23;3.30;;;3.00;;
10823;SDS011;39116;59.332;18.034;2023-11-22T02:26:46;3.20;;;2.90;;
10823;SDS011;39116;59.332;18.034;2023-11-22T02:29:08;3.40;;;2.47;;
10823;SDS011;39116;59.332;18.034;2023-11-22T02:31:30;3.27;;;2.53;;
10823;SDS011;39116;59.332;18.034;2023-11-22T02:33:54;3.10;;;2.80;;
10823;SDS011;39116;59.332;18.034;2023-11-22T02:36:16;2.93;;;2.63;;
10823;SDS011;39116;59.332;18.034;2023-11-22T02:38:38;3.47;;;2.60;;
10823;SDS011;39116;59.332;18.034;2023-11-22T02:41:02;3.00;;;2.70;;
10823;SDS011;39116;59.332;18.034;2023-11-22T02:43:24;3.00;;;2.70;;
10823;SDS011;39116;59.332;18.034;2023-11-22T02:45:46;3.50;;;3.03;;
10823;SDS011;39116;59.332;18.034;2023-11-22T02:48:07;3.80;;;3.20;;
10823;SDS011;39116;59.332;18.034;2023-11-22T02:50:29;3.73;;;3.20;;
10823;SDS011;39116;59.332;18.034;2023-11-22T02:52:51;3.70;;;2.80;;
10823;SDS011;39116;59.332;18.034;2023-11-22T02:55:13;3.93;;;3.53;;
10823;SDS011;39116;59.332;18.034;2023-11-22T02:57:37;3.47;;;3.13;;
10823;SDS011;39116;59.332;18.034;2023-11-22T03:00:00;3.40;;;3.10;;
10823;SDS011;39116;59.332;18.034;2023-11-22T03:02:24;3.80;;;3.50;;
10823;SDS011;39116;59.332;18.034;2023-11-22T03:04:46;3.63;;;3.33;;
10823;SDS011;39116;59.332;18.034;2023-11-22T03:07:07;4.00;;;3.60;;
10823;SDS011;39116;59.332;18.034;2023-11-22T03:09:29;3.93;;;3.53;;
10823;SDS011;39116;59.332;18.034;2023-11-22T03:11:51;3.77;;;3.43;;
10823;SDS011;39116;59.332;18.034;2023-11-22T03:14:14;4.73;;;3.90;;
10823;SDS011;39116;59.332;18.034;2023-11-22T03:16:38;4.23;;;3.70;;
10823;SDS011;39116;59.332;18.034;2023-11-22T03:19:00;4.40;;;4.00;;
10823;SDS011;39116;59.332;18.034;2023-11-22T03:21:22;4.20;;;3.80;;
10823;SDS011;39116;59.332;18.034;2023-11-22T03:23:46;4.50;;;4.10;;
10823;SDS011;39116;59.332;18.034;2023-11-22T03:26:07;5.07;;;4.30;;
10823;SDS011;39116;59.332;18.034;2023-11-22T03:28:30;5.50;;;4.47;;
10823;SDS011;39116;59.332;18.034;2023-11-22T03:30:52;4.73;;;4.20;;
10823;SDS011;39116;59.332;18.034;2023-11-22T03:33:14;5.33;;;4.60;;
10823;SDS011;39116;59.332;18.034;2023-11-22T03:35:36;5.87;;;4.53;;
10823;SDS011;39116;59.332;18.034;2023-11-22T03:37:57;4.73;;;4.23;;
10823;SDS011;39116;59.332;18.034;2023-11-22T03:40:19;5.43;;;4.47;;
10823;SDS011;39116;59.332;18.034;2023-11-22T03:42:41;5.67;;;4.90;;
10823;SDS011;39116;59.332;18.034;2023-11-22T03:45:02;5.90;;;5.33;;
10823;SDS011;39116;59.332;18.034;2023-11-22T03:47:25;6.67;;;5.30;;
10823;SDS011;39116;59.332;18.034;2023-11-22T03:49:47;5.93;;;5.30;;
10823;SDS011;39116;59.332;18.034;2023-11-22T03:52:10;6.40;;;5.63;;
10823;SDS011;39116;59.332;18.034;2023-11-22T03:54:31;6.27;;;5.20;;
10823;SDS011;39116;59.332;18.034;2023-11-22T03:56:53;6.17;;;5.53;;
10823;SDS011;39116;59.332;18.034;2023-11-22T03:59:15;6.43;;;5.83;;
10823;SDS011;39116;59.332;18.034;2023-11-22T04:01:36;6.73;;;6.13;;
10823;SDS011;39116;59.332;18.034;2023-11-22T04:03:59;6.03;;;5.47;;
10823;SDS011;39116;59.332;18.034;2023-11-22T04:06:21;6.67;;;5.53;;
10823;SDS011;39116;59.332;18.034;2023-11-22T04:08:43;7.17;;;6.17;;
10823;SDS011;39116;59.332;18.034;2023-11-22T04:11:05;6.20;;;5.60;;
10823;SDS011;39116;59.332;18.034;2023-11-22T04:13:27;6.10;;;5.50;;
10823;SDS011;39116;59.332;18.034;2023-11-22T04:15:50;7.13;;;5.60;;
10823;SDS011;39116;59.332;18.034;2023-11-22T04:18:11;5.13;;;4.63;;
10823;SDS011;39116;59.332;18.034;2023-11-22T04:20:34;5.17;;;4.53;;
10823;SDS011;39116;59.332;18.034;2023-11-22T04:22:56;4.23;;;3.83;;
10823;SDS011;39116;59.332;18.034;2023-11-22T04:25:18;5.17;;;4.37;;
10823;SDS011;39116;59.332;18.034;2023-11-22T04:27:40;4.47;;;4.00;;
10823;SDS011;39116;59.332;18.034;2023-11-22T04:30:01;4.40;;;4.00;;
10823;SDS011;39116;59.332;18.034;2023-11-22T04:32:23;4.53;;;3.53;;
10823;SDS011;39116;59.332;18.034;2023-11-22T04:34:44;4.40;;;3.43;;
10823;SDS011;39116;59.332;18.034;2023-11-22T04:37:07;5.27;;;3.70;;
10823;SDS011;39116;59.332;18.034;2023-11-22T04:39:29;3.70;;;3.40;;
10823;SDS011;39116;59.332;18.034;2023-11-22T04:41:50;5.47;;;3.80;;
10823;SDS011;39116;59.332;18.034;2023-11-22T04:44:12;3.43;;;3.13;;
10823;SDS011;39116;59.332;18.034;2023-11-22T04:46:34;4.03;;;3.33;;
10823;SDS011;39116;59.332;18.034;2023-11-22T04:48:56;4.67;;;3.43;;
10823;SDS011;39116;59.332;18.034;2023-11-22T04:51:17;4.20;;;2.97;;
10823;SDS011;39116;59.332;18.034;2023-11-22T04:53:39;3.20;;;2.90;;
10823;SDS011;39116;59.332;18.034;2023-11-22T04:56:03;4.13;;;2.33;;
10823;SDS011;39116;59.332;18.034;2023-11-22T04:58:26;2.93;;;2.63;;
10823;SDS011;39116;59.332;18.034;2023-11-22T05:00:47;2.63;;;2.43;;
10823;SDS011;39116;59.332;18.034;2023-11-22T05:03:09;3.17;;;2.47;;
10823;SDS011;39116;59.332;18.034;2023-11-22T05:05:31;2.77;;;2.47;;
10823;SDS011;39116;59.332;18.034;2023-11-22T05:07:53;2.50;;;2.30;;
10823;SDS011;39116;59.332;18.034;2023-11-22T05:10:16;4.07;;;2.20;;
10823;SDS011;39116;59.332;18.034;2023-11-22T05:12:38;2.80;;;2.50;;
10823;SDS011;39116;59.332;18.034;2023-11-22T05:15:00;2.63;;;2.10;;
10823;SDS011;39116;59.332;18.034;2023-11-22T05:17:21;2.77;;;2.30;;
10823;SDS011;39116;59.332;18.034;2023-11-22T05:19:43;3.70;;;2.30;;
10823;SDS011;39116;59.332;18.034;2023-11-22T05:22:04;3.50;;;2.40;;
10823;SDS011;39116;59.332;18.034;2023-11-22T05:24:26;4.83;;;2.73;;
10823;SDS011;39116;59.332;18.034;2023-11-22T05:26:49;3.43;;;2.80;;
10823;SDS011;39116;59.332;18.034;2023-11-22T05:29:11;2.80;;;2.37;;
10823;SDS011;39116;59.332;18.034;2023-11-22T05:31:33;3.83;;;2.90;;
10823;SDS011;39116;59.332;18.034;2023-11-22T05:33:55;3.10;;;2.67;;
10823;SDS011;39116;59.332;18.034;2023-11-22T05:36:17;3.67;;;2.80;;
10823;SDS011;39116;59.332;18.034;2023-11-22T05:38:39;2.93;;;2.47;;
10823;SDS011;39116;59.332;18.034;2023-11-22T05:41:00;3.13;;;2.67;;
10823;SDS011;39116;59.332;18.034;2023-11-22T05:43:23;3.30;;;2.90;;
10823;SDS011;39116;59.332;18.034;2023-11-22T05:45:46;3.60;;;2.90;;
10823;SDS011;39116;59.332;18.034;2023-11-22T05:48:09;3.37;;;2.70;;
10823;SDS011;39116;59.332;18.034;2023-11-22T05:50:31;3.13;;;2.83;;
10823;SDS011;39116;59.332;18.034;2023-11-22T05:52:52;3.47;;;3.10;;
10823;SDS011;39116;59.332;18.034;2023-11-22T05:55:14;4.97;;;3.80;;
10823;SDS011;39116;59.332;18.034;2023-11-22T05:57:38;3.53;;;2.80;;
10823;SDS011;39116;59.332;18.034;2023-11-22T06:00:01;3.93;;;3.13;;
10823;SDS011;39116;59.332;18.034;2023-11-22T06:02:23;3.33;;;2.93;;
10823;SDS011;39116;59.332;18.034;2023-11-22T06:04:45;3.90;;;3.40;;
10823;SDS011;39116;59.332;18.034;2023-11-22T06:07:06;3.30;;;3.00;;
10823;SDS011;39116;59.332;18.034;2023-11-22T06:09:28;3.47;;;3.17;;
10823;SDS011;39116;59.332;18.034;2023-11-22T06:11:49;4.30;;;3.60;;
10823;SDS011;39116;59.332;18.034;2023-11-22T06:14:11;4.03;;;3.53;;
10823;SDS011;39116;59.332;18.034;2023-11-22T06:16:34;4.10;;;3.70;;
10823;SDS011;39116;59.332;18.034;2023-11-22T06:18:56;4.60;;;3.67;;
10823;SDS011;39116;59.332;18.034;2023-11-22T06:21:17;4.33;;;3.63;;
10823;SDS011;39116;59.332;18.034;2023-11-22T06:23:39;5.13;;;4.17;;
10823;SDS011;39116;59.332;18.034;2023-11-22T06:26:01;5.50;;;4.90;;
10823;SDS011;39116;59.332;18.034;2023-11-22T06:28:23;7.47;;;5.00;;
10823;SDS011;39116;59.332;18.034;2023-11-22T06:30:45;5.73;;;5.17;;
10823;SDS011;39116;59.332;18.034;2023-11-22T06:33:08;5.80;;;5.13;;
10823;SDS011;39116;59.332;18.034;2023-11-22T06:35:30;5.60;;;5.10;;
10823;SDS011;39116;59.332;18.034;2023-11-22T06:37:52;5.20;;;4.70;;
10823;SDS011;39116;59.332;18.034;2023-11-22T06:40:13;4.90;;;4.30;;
10823;SDS011;39116;59.332;18.034;2023-11-22T06:42:37;7.07;;;5.67;;
10823;SDS011;39116;59.332;18.034;2023-11-22T06:44:58;13.30;;;6.67;;
10823;SDS011;39116;59.332;18.034;2023-11-22T06:47:20;12.10;;;8.27;;
10823;SDS011;39116;59.332;18.034;2023-11-22T06:49:44;23.17;;;9.73;;
10823;SDS011;39116;59.332;18.034;2023-11-22T06:52:05;21.87;;;10.23;;
10823;SDS011;39116;59.332;18.034;2023-11-22T06:54:29;42.97;;;13.10;;
10823;SDS011;39116;59.332;18.034;2023-11-22T06:56:51;42.03;;;13.27;;
10823;SDS011;39116;59.332;18.034;2023-11-22T06:59:14;40.90;;;15.00;;
10823;SDS011;39116;59.332;18.034;2023-11-22T07:01:35;36.00;;;14.27;;
10823;SDS011;39116;59.332;18.034;2023-11-22T07:03:57;39.43;;;16.43;;
10823;SDS011;39116;59.332;18.034;2023-11-22T07:06:20;33.57;;;15.70;;
10823;SDS011;39116;59.332;18.034;2023-11-22T07:08:43;33.90;;;15.83;;
10823;SDS011;39116;59.332;18.034;2023-11-22T07:11:05;28.13;;;15.50;;
10823;SDS011;39116;59.332;18.034;2023-11-22T07:13:29;25.03;;;13.60;;
10823;SDS011;39116;59.332;18.034;2023-11-22T07:15:51;20.27;;;13.83;;
10823;SDS011;39116;59.332;18.034;2023-11-22T07:18:14;21.47;;;13.77;;
10823;SDS011;39116;59.332;18.034;2023-11-22T07:20:36;16.87;;;12.00;;
10823;SDS011;39116;59.332;18.034;2023-11-22T07:23:00;22.60;;;14.03;;
10823;SDS011;39116;59.332;18.034;2023-11-22T07:25:22;23.10;;;12.80;;
10823;SDS011;39116;59.332;18.034;2023-11-22T07:27:45;24.80;;;14.33;;
10823;SDS011;39116;59.332;18.034;2023-11-22T07:30:07;22.33;;;13.70;;
10823;SDS011;39116;59.332;18.034;2023-11-22T07:32:29;21.20;;;14.20;;
10823;SDS011;39116;59.332;18.034;2023-11-22T07:34:51;19.93;;;14.03;;
10823;SDS011;39116;59.332;18.034;2023-11-22T07:37:16;32.17;;;15.10;;
10823;SDS011;39116;59.332;18.034;2023-11-22T07:39:39;28.27;;;15.30;;
10823;SDS011;39116;59.332;18.034;2023-11-22T07:42:03;23.30;;;14.80;;
10823;SDS011;39116;59.332;18.034;2023-11-22T07:44:27;23.17;;;15.60;;
10823;SDS011;39116;59.332;18.034;2023-11-22T07:46:52;23.30;;;15.40;;
10823;SDS011;39116;59.332;18.034;2023-11-22T07:49:14;23.10;;;15.40;;
10823;SDS011;39116;59.332;18.034;2023-11-22T07:51:36;26.13;;;16.80;;
10823;SDS011;39116;59.332;18.034;2023-11-22T07:53:58;22.70;;;15.83;;
10823;SDS011;39116;59.332;18.034;2023-11-22T07:56:21;24.43;;;16.63;;
10823;SDS011;39116;59.332;18.034;2023-11-22T07:58:43;20.90;;;15.43;;
10823;SDS011;39116;59.332;18.034;2023-11-22T08:01:05;24.37;;;16.43;;
10823;SDS011;39116;59.332;18.034;2023-11-22T08:03:33;22.10;;;15.40;;
10823;SDS011;39116;59.332;18.034;2023-11-22T08:05:55;19.50;;;15.43;;
10823;SDS011;39116;59.332;18.034;2023-11-22T08:08:17;17.53;;;13.73;;
10823;SDS011;39116;59.332;18.034;2023-11-22T08:10:39;19.63;;;14.30;;
10823;SDS011;39116;59.332;18.034;2023-11-22T08:13:02;21.97;;;15.10;;
10823;SDS011;39116;59.332;18.034;2023-11-22T08:15:23;17.80;;;13.90;;
10823;SDS011;39116;59.332;18.034;2023-11-22T08:17:45;17.40;;;13.43;;
10823;SDS011;39116;59.332;18.034;2023-11-22T08:20:07;17.20;;;13.27;;
10823;SDS011;39116;59.332;18.034;2023-11-22T08:22:33;16.73;;;13.67;;
10823;SDS011;39116;59.332;18.034;2023-11-22T08:24:55;16.20;;;13.20;;
10823;SDS011;39116;59.332;18.034;2023-11-22T08:27:17;16.43;;;12.60;;
10823;SDS011;39116;59.332;18.034;2023-11-22T08:29:40;16.20;;;12.80;;
10823;SDS011;39116;59.332;18.034;2023-11-22T08:32:02;14.90;;;12.20;;
10823;SDS011;39116;59.332;18.034;2023-11-22T09:59:51;4.30;;;3.83;;
10823;SDS011;39116;59.332;18.034;2023-11-22T10:02:15;4.93;;;4.10;;
10823;SDS011;39116;59.332;18.034;2023-11-22T10:04:36;4.50;;;4.10;;
10823;SDS011;39116;59.332;18.034;2023-11-22T10:06:59;4.50;;;3.83;;
10823;SDS011;39116;59.332;18.034;2023-11-22T10:09:20;5.53;;;4.07;;
10823;SDS011;39116;59.332;18.034;2023-11-22T10:11:44;4.47;;;4.07;;
10823;SDS011;39116;59.332;18.034;2023-11-22T10:14:06;4.33;;;3.87;;
10823;SDS011;39116;59.332;18.034;2023-11-22T10:16:30;4.33;;;3.93;;
10823;SDS011;39116;59.332;18.034;2023-11-22T10:18:52;4.37;;;3.97;;
10823;SDS011;39116;59.332;18.034;2023-11-22T10:21:18;5.73;;;4.50;;
10823;SDS011;39116;59.332;18.034;2023-11-22T10:23:40;5.07;;;4.43;;
10823;SDS011;39116;59.332;18.034;2023-11-22T10:26:01;5.10;;;4.60;;
10823;SDS011;39116;59.332;18.034;2023-11-22T10:28:27;5.00;;;4.50;;
10823;SDS011;39116;59.332;18.034;2023-11-22T10:30:50;6.13;;;5.00;;
10823;SDS011;39116;59.332;18.034;2023-11-22T10:33:14;5.50;;;4.53;;
10823;SDS011;39116;59.332;18.034;2023-11-22T10:35:35;5.20;;;4.60;;
10823;SDS011;39116;59.332;18.034;2023-11-22T10:37:58;5.00;;;4.53;;
10823;SDS011;39116;59.332;18.034;2023-11-22T10:40:22;5.63;;;4.73;;
10823;SDS011;39116;59.332;18.034;2023-11-22T10:42:44;5.70;;;4.60;;
10823;SDS011;39116;59.332;18.034;2023-11-22T10:45:09;5.37;;;4.87;;
10823;SDS011;39116;59.332;18.034;2023-11-22T10:47:31;5.27;;;4.60;;
10823;SDS011;39116;59.332;18.034;2023-11-22T10:49:54;4.90;;;4.30;;
10823;SDS011;39116;59.332;18.034;2023-11-22T10:52:16;5.00;;;4.50;;
10823;SDS011;39116;59.332;18.034;2023-11-22T10:54:42;5.07;;;4.07;;
10823;SDS011;39116;59.332;18.034;2023-11-22T10:57:05;5.70;;;4.43;;
10823;SDS011;39116;59.332;18.034;2023-11-22T10:59:28;5.77;;;4.37;;
10823;SDS011;39116;59.332;18.034;2023-11-22T11:01:50;7.90;;;4.60;;
10823;SDS011;39116;59.332;18.034;2023-11-22T11:04:17;5.77;;;4.40;;
10823;SDS011;39116;59.332;18.034;2023-11-22T11:06:41;6.87;;;4.90;;
10823;SDS011;39116;59.332;18.034;2023-11-22T11:09:06;5.13;;;4.63;;
10823;SDS011;39116;59.332;18.034;2023-11-22T11:11:29;5.20;;;4.70;;
10823;SDS011;39116;59.332;18.034;2023-11-22T11:13:51;5.73;;;4.97;;
10823;SDS011;39116;59.332;18.034;2023-11-22T11:16:13;6.13;;;4.90;;
10823;SDS011;39116;59.332;18.034;2023-11-22T11:18:34;5.50;;;4.67;;
10823;SDS011;39116;59.332;18.034;2023-11-22T11:20:57;6.27;;;4.67;;
10823;SDS011;39116;59.332;18.034;2023-11-22T11:23:21;5.47;;;4.97;;
10823;SDS011;39116;59.332;18.034;2023-11-22T11:25:44;5.47;;;4.50;;
10823;SDS011;39116;59.332;18.034;2023-11-22T11:28:07;5.90;;;5.07;;
10823;SDS011;39116;59.332;18.034;2023-11-22T11:30:42;5.47;;;4.57;;
10823;SDS011;39116;59.332;18.034;2023-11-22T11:33:04;5.10;;;4.60;;
10823;SDS011;39116;59.332;18.034;2023-11-22T11:35:37;5.50;;;4.90;;
10823;SDS011;39116;59.332;18.034;2023-11-22T11:37:59;5.33;;;4.83;;
10823;SDS011;39116;59.332;18.034;2023-11-22T11:40:27;8.40;;;5.53;;
10823;SDS011;39116;59.332;18.034;2023-11-22T11:42:52;5.90;;;4.90;;
10823;SDS011;39116;59.332;18.034;2023-11-22T11:45:16;5.83;;;5.03;;
10823;SDS011;39116;59.332;18.034;2023-11-22T11:47:37;5.33;;;4.83;;
10823;SDS011;39116;59.332;18.034;2023-11-22T11:49:59;6.33;;;5.60;;
10823;SDS011;39116;59.332;18.034;2023-11-22T11:52:21;5.73;;;4.93;;
10823;SDS011;39116;59.332;18.034;2023-11-22T11:54:43;5.30;;;4.80;;
10823;SDS011;39116;59.332;18.034;2023-11-22T11:57:06;5.33;;;4.80;;
10823;SDS011;39116;59.332;18.034;2023-11-22T11:59:28;6.00;;;4.60;;
10823;SDS011;39116;59.332;18.034;2023-11-22T12:01:52;5.30;;;4.80;;
10823;SDS011;39116;59.332;18.034;2023-11-22T12:04:16;5.07;;;4.43;;
10823;SDS011;39116;59.332;18.034;2023-11-22T12:06:37;6.20;;;4.60;;
10823;SDS011;39116;59.332;18.034;2023-11-22T12:09:00;5.33;;;4.77;;
10823;SDS011;39116;59.332;18.034;2023-11-22T12:11:21;5.53;;;4.30;;
10823;SDS011;39116;59.332;18.034;2023-11-22T12:13:44;4.83;;;4.03;;
10823;SDS011;39116;59.332;18.034;2023-11-22T12:16:09;4.97;;;4.40;;
10823;SDS011;39116;59.332;18.034;2023-11-22T12:18:38;4.60;;;4.00;;
10823;SDS011;39116;59.332;18.034;2023-11-22T12:21:01;5.27;;;4.07;;
10823;SDS011;39116;59.332;18.034;2023-11-22T12:23:24;5.53;;;4.30;;
10823;SDS011;39116;59.332;18.034;2023-11-22T12:25:47;6.23;;;3.60;;
10823;SDS011;39116;59.332;18.034;2023-11-22T12:28:09;5.27;;;4.23;;
10823;SDS011;39116;59.332;18.034;2023-11-22T12:30:32;4.40;;;4.00;;
10823;SDS011;39116;59.332;18.034;2023-11-22T12:32:54;4.63;;;4.00;;
10823;SDS011;39116;59.332;18.034;2023-11-22T12:35:16;5.53;;;3.77;;
10823;SDS011;39116;59.332;18.034;2023-11-22T12:37:38;5.03;;;3.70;;
10823;SDS011;39116;59.332;18.034;2023-11-22T12:40:06;4.20;;;3.67;;
10823;SDS011;39116;59.332;18.034;2023-11-22T12:42:31;3.97;;;3.33;;
10823;SDS011;39116;59.332;18.034;2023-11-22T12:44:52;5.97;;;3.63;;
10823;SDS011;39116;59.332;18.034;2023-11-22T12:47:15;4.50;;;3.70;;
10823;SDS011;39116;59.332;18.034;2023-11-22T12:49:42;4.53;;;3.47;;
10823;SDS011;39116;59.332;18.034;2023-11-22T12:52:05;4.53;;;3.60;;
10823;SDS011;39116;59.332;18.034;2023-11-22T12:54:27;5.13;;;3.10;;
10823;SDS011;39116;59.332;18.034;2023-11-22T12:56:49;5.83;;;3.77;;
10823;SDS011;39116;59.332;18.034;2023-11-22T12:59:14;3.97;;;3.30;;
10823;SDS011;39116;59.332;18.034;2023-11-22T13:01:35;4.10;;;3.13;;
10823;SDS011;39116;59.332;18.034;2023-11-22T13:03:58;3.90;;;3.33;;
10823;SDS011;39116;59.332;18.034;2023-11-22T13:06:20;5.33;;;3.40;;
10823;SDS011;39116;59.332;18.034;2023-11-22T13:08:44;4.20;;;3.63;;
10823;SDS011;39116;59.332;18.034;2023-11-22T13:11:06;4.70;;;3.90;;
10823;SDS011;39116;59.332;18.034;2023-11-22T13:13:27;6.00;;;3.90;;
10823;SDS011;39116;59.332;18.034;2023-11-22T13:15:50;6.03;;;3.70;;
10823;SDS011;39116;59.332;18.034;2023-11-22T13:18:12;4.60;;;3.83;;
10823;SDS011;39116;59.332;18.034;2023-11-22T13:20:35;6.13;;;3.80;;
10823;SDS011;39116;59.332;18.034;2023-11-22T13:22:58;5.53;;;3.90;;
10823;SDS011;39116;59.332;18.034;2023-11-22T13:25:21;4.87;;;3.50;;
10823;SDS011;39116;59.332;18.034;2023-11-22T13:27:43;5.53;;;4.20;;
10823;SDS011;39116;59.332;18.034;2023-11-22T13:30:05;5.47;;;4.13;;
10823;SDS011;39116;59.332;18.034;2023-11-22T13:32:27;4.67;;;4.10;;
10823;SDS011;39116;59.332;18.034;2023-11-22T13:34:49;5.83;;;3.93;;
10823;SDS011;39116;59.332;18.034;2023-11-22T13:37:16;4.40;;;3.77;;
10823;SDS011;39116;59.332;18.034;2023-11-22T13:39:38;3.93;;;3.43;;
10823;SDS011;39116;59.332;18.034;2023-11-22T13:42:00;4.23;;;3.50;;
10823;SDS011;39116;59.332;18.034;2023-11-22T13:44:22;5.00;;;3.90;;
10823;SDS011;39116;59.332;18.034;2023-11-22T15:57:08;3.83;;;2.40;;
10823;SDS011;39116;59.332;18.034;2023-11-22T15:59:30;2.70;;;2.33;;
10823;SDS011;39116;59.332;18.034;2023-11-22T16:01:52;5.03;;;2.95;;
10823;SDS011;39116;59.332;18.034;2023-11-22T16:04:13;3.03;;;2.40;;
10823;SDS011;39116;59.332;18.034;2023-11-22T16:06:35;3.00;;;2.30;;
10823;SDS011;39116;59.332;18.034;2023-11-22T16:08:57;3.93;;;2.20;;
10823;SDS011;39116;59.332;18.034;2023-11-22T16:11:18;6.80;;;2.63;;
10823;SDS011;39116;59.332;18.034;2023-11-22T16:13:41;3.73;;;2.40;;
10823;SDS011;39116;59.332;18.034;2023-11-22T16:16:04;4.53;;;2.27;;
10823;SDS011;39116;59.332;18.034;2023-11-22T16:18:28;4.43;;;2.17;;
10823;SDS011;39116;59.332;18.034;2023-11-22T16:20:49;3.40;;;2.30;;
10823;SDS011;39116;59.332;18.034;2023-11-22T16:23:12;4.17;;;2.93;;
10823;SDS011;39116;59.332;18.034;2023-11-22T16:25:33;6.27;;;4.93;;
10823;SDS011;39116;59.332;18.034;2023-11-22T16:27:55;5.40;;;3.38;;
10823;SDS011;39116;59.332;18.034;2023-11-22T16:30:18;4.00;;;3.15;;
10823;SDS011;39116;59.332;18.034;2023-11-22T16:32:41;3.90;;;3.07;;
10823;SDS011;39116;59.332;18.034;2023-11-22T16:35:03;9.17;;;5.77;;
10823;SDS011;39116;59.332;18.034;2023-11-22T16:37:26;4.93;;;3.30;;
10823;SDS011;39116;59.332;18.034;2023-11-22T16:39:47;7.20;;;4.73;;
10823;SDS011;39116;59.332;18.034;2023-11-22T16:42:09;3.23;;;2.60;;
10823;SDS011;39116;59.332;18.034;2023-11-22T16:44:31;2.90;;;2.47;;
10823;SDS011;39116;59.332;18.034;2023-11-22T16:46:54;3.87;;;2.40;;
10823;SDS011;39116;59.332;18.034;2023-11-22T16:49:15;3.67;;;2.27;;
10823;SDS011;39116;59.332;18.034;2023-11-22T16:51:37;2.67;;;2.30;;
10823;SDS011;39116;59.332;18.034;2023-11-22T16:53:59;2.93;;;2.13;;
10823;SDS011;39116;59.332;18.034;2023-11-22T16:56:20;3.40;;;2.23;;
10823;SDS011;39116;59.332;18.034;2023-11-22T16:58:42;3.03;;;2.30;;
10823;SDS011;39116;59.332;18.034;2023-11-22T17:01:05;4.30;;;2.40;;
10823;SDS011;39116;59.332;18.034;2023-11-22T17:03:28;2.63;;;2.15;;
10823;SDS011;39116;59.332;18.034;2023-11-22T17:05:49;3.57;;;2.17;;
10823;SDS011;39116;59.332;18.034;2023-11-22T17:08:11;3.58;;;1.95;;
10823;SDS011;39116;59.332;18.034;2023-11-22T17:10:32;2.70;;;1.83;;
10823;SDS011;39116;59.332;18.034;2023-11-22T17:12:54;2.25;;;1.95;;
10823;SDS011;39116;59.332;18.034;2023-11-22T17:15:16;3.70;;;2.10;;
10823;SDS011;39116;59.332;18.034;2023-11-22T17:17:39;3.07;;;2.20;;
10823;SDS011;39116;59.332;18.034;2023-11-22T17:20:03;3.20;;;2.23;;
10823;SDS011;39116;59.332;18.034;2023-11-22T17:22:25;3.03;;;2.05;;
10823;SDS011;39116;59.332;18.034;2023-11-22T17:24:48;3.10;;;1.77;;
10823;SDS011;39116;59.332;18.034;2023-11-22T17:27:10;3.00;;;2.10;;
10823;SDS011;39116;59.332;18.034;2023-11-22T17:29:31;2.53;;;2.20;;
10823;SDS011;39116;59.332;18.034;2023-11-22T17:31:53;3.97;;;1.63;;
10823;SDS011;39116;59.332;18.034;2023-11-22T17:34:14;2.60;;;2.10;;
10823;SDS011;39116;59.332;18.034;2023-11-22T17:36:37;2.77;;;2.20;;
10823;SDS011;39116;59.332;18.034;2023-11-22T17:38:59;4.27;;;2.13;;